Time;durP1;ratioP1;P1;durP2;ratioP2;P2;SDS_P1;SDS_P2;PMS_P1;PMS_P2;Temp;Humidity;BMP_temperature;BMP_pressure;BME280_temperature;BME280_humidity;BME280_pressure;Samples;Min_cycle;Max_cycle;Signal;HPM_P1;HPM_P2
2021/11/06 00:00:07;;;;;;;1999.90;999.90;;;8.00;99.90;;;;;;4992452;28;20265;-84
2021/11/06 00:02:33;;;;;;;1999.90;999.90;;;8.00;99.90;;;;;;4992666;28;20699;-82
2021/11/06 00:04:59;;;;;;;1999.90;999.90;;;8.00;99.90;;;;;;4992660;28;20187;-83
2021/11/06 00:07:24;;;;;;;1999.90;999.90;;;7.80;99.90;;;;;;4992413;28;20176;-83
2021/11/06 00:09:50;;;;;;;1999.90;999.90;;;7.90;99.90;;;;;;4992529;28;20224;-83
2021/11/06 00:12:16;;;;;;;1999.90;999.90;;;7.80;99.90;;;;;;4992529;28;20695;-83
2021/11/06 00:14:41;;;;;;;1999.90;999.90;;;7.80;99.90;;;;;;4992772;28;20550;-82
2021/11/06 00:17:07;;;;;;;1999.90;999.90;;;7.80;99.90;;;;;;4992750;28;20180;-83
2021/11/06 00:19:33;;;;;;;1999.90;999.90;;;7.70;99.90;;;;;;4992198;28;20187;-83
2021/11/06 00:21:58;;;;;;;1999.90;999.90;;;7.70;99.90;;;;;;4993280;28;20184;-83
2021/11/06 00:24:24;;;;;;;1999.90;999.90;;;7.70;99.90;;;;;;4996545;28;20218;-84
2021/11/06 00:26:49;;;;;;;1999.90;999.90;;;7.70;99.90;;;;;;4996412;28;20186;-83
2021/11/06 00:29:21;;;;;;;1999.90;999.90;;;7.70;99.90;;;;;;4996108;28;20185;-82
2021/11/06 00:31:47;;;;;;;1999.90;999.90;;;7.60;99.90;;;;;;4996165;28;20183;-83
2021/11/06 00:34:13;;;;;;;1999.90;999.90;;;7.60;99.90;;;;;;4995916;28;20183;-84
2021/11/06 00:36:38;;;;;;;1999.90;999.90;;;7.60;99.90;;;;;;4996075;28;20180;-83
2021/11/06 00:39:04;;;;;;;1999.90;999.90;;;7.60;99.90;;;;;;4995919;28;20180;-82
2021/11/06 00:41:30;;;;;;;1999.90;999.90;;;7.50;99.90;;;;;;4995753;28;20200;-83
2021/11/06 00:43:56;;;;;;;1999.90;999.90;;;7.50;99.90;;;;;;4995883;28;20718;-85
2021/11/06 00:46:21;;;;;;;1999.90;999.90;;;7.60;99.90;;;;;;4995833;28;20183;-83
2021/11/06 00:48:47;;;;;;;1999.90;999.90;;;7.40;99.90;;;;;;4995799;28;20640;-83
2021/11/06 00:51:12;;;;;;;1999.90;999.90;;;7.40;99.90;;;;;;4996113;28;20197;-83
2021/11/06 00:53:38;;;;;;;1999.90;999.90;;;7.40;99.90;;;;;;4996022;28;20264;-83
2021/11/06 00:56:05;;;;;;;1999.90;999.90;;;;;;;;;;4995782;28;20207;-84
2021/11/06 00:58:31;;;;;;;1999.90;999.90;;;7.40;99.90;;;;;;4995502;28;20188;-84
2021/11/06 01:00:56;;;;;;;1999.90;999.90;;;7.20;99.90;;;;;;4995653;28;20699;-82
2021/11/06 01:03:23;;;;;;;1999.90;999.90;;;;;;;;;;4995933;28;20200;-84
2021/11/06 01:05:48;;;;;;;1999.90;999.90;;;7.00;99.90;;;;;;4995466;28;20180;-82
2021/11/06 01:08:14;;;;;;;1999.90;999.90;;;7.10;99.90;;;;;;4995490;28;20235;-83
2021/11/06 01:10:41;;;;;;;1999.90;999.90;;;;;;;;;;4995317;28;20303;-83
2021/11/06 01:13:06;;;;;;;1999.90;999.90;;;6.90;99.90;;;;;;4995375;28;20184;-82
2021/11/06 01:15:32;;;;;;;1999.90;999.90;;;7.10;99.90;;;;;;4995309;28;20191;-83
2021/11/06 01:17:57;;;;;;;1999.90;999.90;;;6.80;99.90;;;;;;4995306;28;20539;-83
2021/11/06 01:20:23;;;;;;;1999.90;999.90;;;7.00;99.90;;;;;;4995432;28;20208;-83
2021/11/06 01:22:49;;;;;;;1999.90;999.90;;;7.00;99.90;;;;;;4995518;28;20239;-83
2021/11/06 01:25:15;;;;;;;1999.90;999.90;;;7.00;99.90;;;;;;4995656;28;20177;-82
2021/11/06 01:27:41;;;;;;;1999.90;999.90;;;6.90;99.90;;;;;;4995105;28;20180;-84
2021/11/06 01:30:07;;;;;;;1999.90;999.90;;;7.00;99.90;;;;;;4994881;28;20204;-83
2021/11/06 01:32:33;;;;;;;1999.90;999.90;;;6.90;99.90;;;;;;4995170;28;20211;-82
2021/11/06 01:35:00;;;;;;;1999.90;999.90;;;6.90;99.90;;;;;;4994978;28;20176;-83
2021/11/06 01:37:26;;;;;;;1999.90;999.90;;;7.00;99.90;;;;;;4995482;28;20574;-84
2021/11/06 01:39:52;;;;;;;1999.90;999.90;;;6.90;99.90;;;;;;4994775;28;20212;-82
2021/11/06 01:42:18;;;;;;;1999.90;999.90;;;6.90;99.90;;;;;;4995213;28;20228;-84
2021/11/06 01:44:43;;;;;;;1999.90;999.90;;;6.90;99.90;;;;;;4994969;28;20640;-84
2021/11/06 01:47:10;;;;;;;1999.90;999.90;;;6.80;99.90;;;;;;4995308;28;20184;-83
2021/11/06 01:49:39;;;;;;;1999.90;999.90;;;6.90;99.90;;;;;;4995166;28;20176;-82
2021/11/06 01:52:05;;;;;;;1999.90;999.90;;;6.90;99.90;;;;;;4995088;28;20171;-83
2021/11/06 01:54:31;;;;;;;1999.90;999.90;;;6.80;99.90;;;;;;4995126;28;20172;-83
2021/11/06 01:56:56;;;;;;;1999.90;999.90;;;6.80;99.90;;;;;;4995357;28;20173;-82
2021/11/06 01:59:22;;;;;;;1999.90;999.90;;;6.80;99.90;;;;;;4994655;28;20173;-83
2021/11/06 02:01:48;;;;;;;1999.90;999.90;;;6.80;99.90;;;;;;4995101;28;20243;-83
2021/11/06 02:04:13;;;;;;;1999.90;999.90;;;6.70;99.90;;;;;;4994994;28;20207;-82
2021/11/06 02:06:39;;;;;;;1999.90;999.90;;;6.80;99.90;;;;;;4994838;28;20176;-84
2021/11/06 02:09:04;;;;;;;1999.90;999.90;;;6.80;99.90;;;;;;4994792;28;20177;-83
2021/11/06 02:11:32;;;;;;;1999.90;999.90;;;6.80;99.90;;;;;;4994622;28;20200;-83
2021/11/06 02:13:57;;;;;;;1999.90;999.90;;;6.70;99.90;;;;;;4994712;28;20651;-84
2021/11/06 02:16:23;;;;;;;1999.90;999.90;;;6.80;99.90;;;;;;4994717;28;20187;-83
2021/11/06 02:18:48;;;;;;;1999.90;999.90;;;6.80;99.90;;;;;;4994796;28;20679;-83
2021/11/06 02:21:14;;;;;;;1999.90;999.90;;;6.70;99.90;;;;;;4994843;28;20565;-84
2021/11/06 02:23:41;;;;;;;1999.90;999.90;;;6.70;99.90;;;;;;4994533;28;20210;-83
2021/11/06 02:26:08;;;;;;;1999.90;999.90;;;6.70;99.90;;;;;;4994962;28;20176;-84
2021/11/06 02:28:33;;;;;;;1999.90;999.90;;;6.70;99.90;;;;;;4994158;28;20175;-81
2021/11/06 02:30:59;;;;;;;1999.90;999.90;;;6.70;99.90;;;;;;4994489;28;20575;-82
2021/11/06 02:33:24;;;;;;;1999.90;999.90;;;6.70;99.90;;;;;;4994628;28;20186;-82
2021/11/06 02:35:50;;;;;;;1999.90;999.90;;;6.60;99.90;;;;;;4994335;28;20726;-83
2021/11/06 02:38:16;;;;;;;1999.90;999.90;;;6.60;99.90;;;;;;4994117;28;20184;-83
2021/11/06 02:40:41;;;;;;;1999.90;999.90;;;6.60;99.90;;;;;;4994171;28;20208;-83
2021/11/06 02:43:09;;;;;;;1999.90;999.90;;;6.70;99.90;;;;;;4994488;28;20269;-81
2021/11/06 02:45:35;;;;;;;1999.90;999.90;;;6.60;99.90;;;;;;4993881;28;20191;-82
2021/11/06 02:48:01;;;;;;;1999.90;999.90;;;6.60;99.90;;;;;;4994397;28;20172;-83
2021/11/06 02:50:27;;;;;;;1999.90;999.90;;;6.70;99.90;;;;;;4994064;28;20250;-83
2021/11/06 02:52:52;;;;;;;1999.90;999.90;;;6.60;99.90;;;;;;4994186;28;20181;-84
2021/11/06 02:55:18;;;;;;;1999.90;999.90;;;6.70;99.90;;;;;;4993733;28;20173;-82
2021/11/06 02:57:44;;;;;;;1999.90;999.90;;;6.70;99.90;;;;;;4993967;28;20180;-82
2021/11/06 03:00:10;;;;;;;1999.90;999.90;;;6.60;99.90;;;;;;4993874;28;20216;-82
2021/11/06 03:02:36;;;;;;;1999.90;999.90;;;6.70;99.90;;;;;;4993860;28;20204;-83
2021/11/06 03:05:06;;;;;;;1999.90;999.90;;;6.70;99.90;;;;;;4993782;28;20275;-82
2021/11/06 03:07:31;;;;;;;1999.90;999.90;;;6.60;99.90;;;;;;4993842;28;20267;-83
2021/11/06 03:09:57;;;;;;;1999.90;999.90;;;6.70;99.90;;;;;;4993478;28;20624;-82
2021/11/06 03:12:23;;;;;;;1999.90;999.90;;;6.60;99.90;;;;;;4993582;28;20204;-82
2021/11/06 03:14:48;;;;;;;1999.90;999.90;;;6.70;99.90;;;;;;4993583;28;20247;-83
2021/11/06 03:17:14;;;;;;;1999.90;999.90;;;6.80;99.90;;;;;;4993627;28;20239;-83
2021/11/06 03:19:39;;;;;;;1999.90;999.90;;;6.80;99.90;;;;;;4993610;28;20226;-81
2021/11/06 03:22:05;;;;;;;1999.90;999.90;;;6.80;99.90;;;;;;4993546;28;20239;-83
2021/11/06 03:24:31;;;;;;;1999.90;999.90;;;6.80;99.90;;;;;;4993358;28;20188;-83
2021/11/06 03:26:56;;;;;;;1999.90;999.90;;;6.90;99.90;;;;;;4993627;28;20181;-84
2021/11/06 03:29:22;;;;;;;1999.90;999.90;;;6.90;99.90;;;;;;4993510;28;20212;-83
2021/11/06 03:31:47;;;;;;;1999.90;999.90;;;6.90;99.90;;;;;;4993476;28;20176;-83
2021/11/06 03:34:13;;;;;;;1999.90;999.90;;;6.90;99.90;;;;;;4993241;28;20180;-83
2021/11/06 03:36:39;;;;;;;1999.90;999.90;;;6.90;99.90;;;;;;4993361;28;20176;-83
2021/11/06 03:39:05;;;;;;;1999.90;999.90;;;6.90;99.90;;;;;;4993304;28;20181;-82
2021/11/06 03:41:31;;;;;;;1999.90;999.90;;;6.90;99.90;;;;;;4993147;28;20254;-83
2021/11/06 03:43:57;;;;;;;1999.90;999.90;;;7.00;99.90;;;;;;4993241;28;20315;-83
2021/11/06 03:46:22;;;;;;;1999.90;999.90;;;7.10;99.90;;;;;;4993661;28;20190;-83
2021/11/06 03:48:48;;;;;;;1999.90;999.90;;;7.10;99.90;;;;;;4993070;28;20190;-83
2021/11/06 03:51:13;;;;;;;1999.90;999.90;;;7.10;99.90;;;;;;4992943;28;20203;-84
2021/11/06 03:53:39;;;;;;;1999.90;999.90;;;7.10;99.90;;;;;;4992848;28;20180;-84
2021/11/06 03:56:05;;;;;;;1999.90;999.90;;;7.10;99.90;;;;;;4992636;28;20188;-82
2021/11/06 03:58:30;;;;;;;1999.90;999.90;;;7.30;99.90;;;;;;4992323;28;20187;-84
2021/11/06 04:00:56;;;;;;;1999.90;999.90;;;7.10;99.90;;;;;;4992860;28;20226;-84
2021/11/06 04:03:21;;;;;;;1999.90;999.90;;;7.20;99.90;;;;;;4992827;28;20683;-84
2021/11/06 04:05:48;;;;;;;1999.90;999.90;;;7.20;99.90;;;;;;4993083;28;20270;-83
2021/11/06 04:08:13;;;;;;;1999.90;999.90;;;7.20;99.90;;;;;;4992811;28;20317;-83
2021/11/06 04:10:39;;;;;;;1999.90;999.90;;;7.20;99.90;;;;;;4992880;28;20241;-82
2021/11/06 04:13:04;;;;;;;1999.90;999.90;;;7.20;99.90;;;;;;4992876;28;20187;-84
2021/11/06 04:15:30;;;;;;;1999.90;999.90;;;7.20;99.90;;;;;;4992886;28;20183;-83
2021/11/06 04:17:55;;;;;;;1999.90;999.90;;;7.20;99.90;;;;;;4992556;28;20234;-83
2021/11/06 04:20:21;;;;;;;1999.90;999.90;;;7.20;99.90;;;;;;4992963;28;20207;-83
2021/11/06 04:22:50;;;;;;;1999.90;999.90;;;7.20;99.90;;;;;;4992962;28;20204;-82
2021/11/06 04:25:15;;;;;;;1999.90;999.90;;;7.20;99.90;;;;;;4993364;28;20188;-82
2021/11/06 04:27:41;;;;;;;1999.90;999.90;;;7.20;99.90;;;;;;4993264;28;20200;-82
2021/11/06 04:30:08;;;;;;;1999.90;999.90;;;7.20;99.90;;;;;;4992744;28;20726;-82
2021/11/06 04:32:33;;;;;;;1999.90;999.90;;;7.20;99.90;;;;;;4992749;28;20199;-82
2021/11/06 04:34:59;;;;;;;1999.90;999.90;;;7.30;99.90;;;;;;4992987;28;20185;-82
2021/11/06 04:37:24;;;;;;;1999.90;999.90;;;7.20;99.90;;;;;;4992986;28;20188;-82
2021/11/06 04:39:50;;;;;;;1999.90;999.90;;;7.20;99.90;;;;;;4992715;28;20200;-82
2021/11/06 04:42:15;;;;;;;1999.90;999.90;;;7.20;99.90;;;;;;4992666;28;20180;-83
2021/11/06 04:44:41;;;;;;;1999.90;999.90;;;7.60;99.90;;;;;;4992899;28;20212;-82
2021/11/06 04:47:06;;;;;;;1999.90;999.90;;;7.20;99.90;;;;;;4992999;28;20176;-83
2021/11/06 04:49:32;;;;;;;1999.90;999.90;;;7.20;99.90;;;;;;4992509;28;20182;-83
2021/11/06 04:51:57;;;;;;;1999.90;999.90;;;7.20;99.90;;;;;;4992826;28;20173;-83
2021/11/06 04:54:23;;;;;;;1999.90;999.90;;;7.30;99.90;;;;;;4992574;28;20588;-82
2021/11/06 04:56:50;;;;;;;1999.90;999.90;;;7.20;99.90;;;;;;4992933;28;20607;-83
2021/11/06 04:59:15;;;;;;;1999.90;999.90;;;7.20;99.90;;;;;;4992425;28;20208;-82
2021/11/06 05:01:41;;;;;;;1999.90;999.90;;;7.10;99.90;;;;;;4992687;28;20200;-83
2021/11/06 05:04:07;;;;;;;1999.90;999.90;;;7.10;99.90;;;;;;4992548;28;20212;-83
2021/11/06 05:06:32;;;;;;;1999.90;999.90;;;7.10;99.90;;;;;;4992178;28;20267;-82
2021/11/06 05:08:58;;;;;;;1999.90;999.90;;;7.10;99.90;;;;;;4994773;28;20208;-83
2021/11/06 05:11:23;;;;;;;1999.90;999.90;;;7.00;99.90;;;;;;4996081;28;20213;-82
2021/11/06 05:13:49;;;;;;;1999.90;999.90;;;7.00;99.90;;;;;;4995844;28;20184;-82
2021/11/06 05:16:14;;;;;;;1999.90;999.90;;;7.10;99.90;;;;;;4995646;28;20191;-82
2021/11/06 05:18:40;;;;;;;1999.90;999.90;;;7.10;99.90;;;;;;4995523;28;20212;-82
2021/11/06 05:21:06;;;;;;;1999.90;999.90;;;7.00;99.90;;;;;;4995658;28;20202;-83
2021/11/06 05:23:31;;;;;;;1999.90;999.90;;;7.00;99.90;;;;;;4995797;28;20258;-83
2021/11/06 05:25:57;;;;;;;1999.90;999.90;;;7.20;99.90;;;;;;4995626;28;20317;-83
2021/11/06 05:28:22;;;;;;;1999.90;999.90;;;7.20;99.90;;;;;;4995619;28;20182;-82
2021/11/06 05:30:48;;;;;;;1999.90;999.90;;;7.20;99.90;;;;;;4995405;28;20211;-82
2021/11/06 05:33:13;;;;;;;1999.90;999.90;;;7.10;99.90;;;;;;4995702;28;20185;-83
2021/11/06 05:35:40;;;;;;;1999.90;999.90;;;7.10;99.90;;;;;;4995812;28;20593;-83
2021/11/06 05:38:05;;;;;;;1999.90;999.90;;;7.10;99.90;;;;;;4995782;28;20200;-83
2021/11/06 05:40:31;;;;;;;1999.90;999.90;;;7.30;99.90;;;;;;4995388;28;20233;-82
2021/11/06 05:42:56;;;;;;;1999.90;999.90;;;7.30;99.90;;;;;;4995697;28;20209;-83
2021/11/06 05:45:22;;;;;;;1999.90;999.90;;;7.20;99.90;;;;;;4995431;28;20185;-84
2021/11/06 05:47:48;;;;;;;1999.90;999.90;;;;;;;;;;4995196;28;20187;-83
2021/11/06 05:50:15;;;;;;;1999.90;999.90;;;;;;;;;;4995126;28;20211;-82
2021/11/06 05:52:41;;;;;;;1999.90;999.90;;;;;;;;;;4995118;28;20189;-83
2021/11/06 05:55:08;;;;;;;1999.90;999.90;;;;;;;;;;4994855;28;20648;-82
2021/11/06 05:57:35;;;;;;;1999.90;999.90;;;7.10;99.90;;;;;;4995040;28;20239;-83
2021/11/06 06:00:08;;;;;;;1999.90;999.90;;;7.30;99.90;;;;;;4994949;28;20242;-82
2021/11/06 06:02:34;;;;;;;1999.90;999.90;;;7.20;99.90;;;;;;4994907;28;20542;-83
2021/11/06 06:05:00;;;;;;;1999.90;999.90;;;7.20;99.90;;;;;;4994851;28;20186;-82
2021/11/06 06:07:25;;;;;;;1999.90;999.90;;;7.20;99.90;;;;;;4995056;28;20173;-83
2021/11/06 06:09:51;;;;;;;1999.90;999.90;;;;;;;;;;4994557;28;20281;-83
2021/11/06 06:12:18;;;;;;;1999.90;999.90;;;;;;;;;;4996054;28;20243;-82
2021/11/06 06:14:44;;;;;;;1999.90;999.90;;;;;;;;;;4994644;28;20597;-82
2021/11/06 06:17:10;;;;;;;1999.90;999.90;;;7.10;99.90;;;;;;4994738;28;20712;-83
2021/11/06 06:19:35;;;;;;;1999.90;999.90;;;7.20;99.90;;;;;;4993707;28;20176;-82
2021/11/06 06:22:02;;;;;;;1999.90;999.90;;;;;;;;;;4994524;28;20182;-83
2021/11/06 06:24:27;;;;;;;1999.90;999.90;;;7.30;99.90;;;;;;4994404;28;20252;-83
2021/11/06 06:26:54;;;;;;;1999.90;999.90;;;;;;;;;;4995310;28;20185;-84
2021/11/06 06:29:21;;;;;;;1999.90;999.90;;;;;;;;;;4994510;28;20638;-82
2021/11/06 06:31:46;;;;;;;1999.90;999.90;;;7.20;99.90;;;;;;4994694;28;20675;-82
2021/11/06 06:34:12;;;;;;;1999.90;999.90;;;7.30;99.90;;;;;;4994040;28;20184;-82
2021/11/06 06:36:37;;;;;;;1999.90;999.90;;;7.30;99.90;;;;;;4994471;28;20197;-82
2021/11/06 06:39:03;;;;;;;1999.90;999.90;;;7.40;99.90;;;;;;4993845;28;20178;-82
2021/11/06 06:41:29;;;;;;;1999.90;999.90;;;7.30;99.90;;;;;;4993590;28;20203;-82
2021/11/06 06:43:55;;;;;;;1999.90;999.90;;;7.30;99.90;;;;;;4993783;28;20198;-82
2021/11/06 06:46:20;;;;;;;1999.90;999.90;;;7.40;99.90;;;;;;4993729;28;20187;-84
2021/11/06 06:48:46;;;;;;;1999.90;999.90;;;7.30;99.90;;;;;;4993463;28;20216;-84
2021/11/06 06:51:12;;;;;;;1999.90;999.90;;;7.30;99.90;;;;;;4993294;28;20728;-83
2021/11/06 06:53:37;;;;;;;1999.90;999.90;;;7.30;99.90;;;;;;4993500;28;20186;-80
2021/11/06 06:56:03;;;;;;;1999.90;999.90;;;7.40;99.90;;;;;;4993513;28;20260;-82
2021/11/06 06:58:28;;;;;;;1999.90;999.90;;;7.30;99.90;;;;;;4993383;28;20191;-83
2021/11/06 07:00:54;;;;;;;1999.90;999.90;;;7.40;99.90;;;;;;4993520;28;20215;-82
2021/11/06 07:03:19;;;;;;;1999.90;999.90;;;7.40;99.90;;;;;;4993032;28;20200;-81
2021/11/06 07:05:45;;;;;;;1999.90;999.90;;;7.30;99.90;;;;;;4993219;28;20240;-86
2021/11/06 07:08:10;;;;;;;1999.90;999.90;;;7.40;99.90;;;;;;4993111;28;20184;-84
2021/11/06 07:10:36;;;;;;;1999.90;999.90;;;7.40;99.90;;;;;;4993035;28;20193;-80
2021/11/06 07:13:02;;;;;;;1999.90;999.90;;;7.40;99.90;;;;;;4993278;28;20190;-82
2021/11/06 07:15:27;;;;;;;1999.90;999.90;;;7.40;99.90;;;;;;4993285;28;20196;-83
2021/11/06 07:17:53;;;;;;;1999.90;999.90;;;7.40;99.90;;;;;;4993646;28;20670;-82
2021/11/06 07:20:20;;;;;;;1999.90;999.90;;;7.30;99.90;;;;;;4993592;28;20209;-83
2021/11/06 07:22:47;;;;;;;1999.90;999.90;;;;;;;;;;4993266;28;20208;-83
2021/11/06 07:25:14;;;;;;;1999.90;999.90;;;;;;;;;;4992921;28;20218;-82
2021/11/06 07:27:39;;;;;;;1999.90;999.90;;;7.40;99.90;;;;;;4992816;28;20551;-80
2021/11/06 07:30:06;;;;;;;1999.90;999.90;;;7.50;99.90;;;;;;4992430;28;20198;-82
2021/11/06 07:32:31;;;;;;;1999.90;999.90;;;7.50;99.90;;;;;;4992553;28;20238;-79
2021/11/06 07:34:57;;;;;;;1999.90;999.90;;;7.50;99.90;;;;;;4992507;28;20186;-82
2021/11/06 07:37:22;;;;;;;1999.90;999.90;;;7.60;99.90;;;;;;4993090;28;20197;-81
2021/11/06 07:39:48;;;;;;;1999.90;999.90;;;7.50;99.90;;;;;;4992362;28;20803;-80
2021/11/06 07:42:13;;;;;;;1999.90;999.90;;;7.60;99.90;;;;;;4993110;28;20571;-81
2021/11/06 07:44:39;;;;;;;1999.90;999.90;;;7.60;99.90;;;;;;4993092;28;20738;-82
2021/11/06 07:47:04;;;;;;;1999.90;999.90;;;7.60;99.90;;;;;;4993217;28;20697;-82
2021/11/06 07:49:30;;;;;;;1999.90;999.90;;;7.60;99.90;;;;;;4992424;28;20201;-83
2021/11/06 07:51:58;;;;;;;1999.90;999.90;;;7.70;99.90;;;;;;4992609;28;20181;-83
2021/11/06 07:54:25;;;;;;;1999.90;999.90;;;;;;;;;;4992743;28;20191;-83
2021/11/06 07:56:50;;;;;;;1999.90;999.90;;;7.40;99.90;;;;;;4992415;28;20556;-81
2021/11/06 07:59:17;;;;;;;1999.90;999.90;;;;;;;;;;4991719;28;20180;-82
2021/11/06 08:01:43;;;;;;;1999.90;999.90;;;;;;;;;;4991982;28;20357;-82
2021/11/06 08:04:09;;;;;;;1999.90;999.90;;;;;;;;;;4992391;28;20207;-80
2021/11/06 08:06:35;;;;;;;1999.90;999.90;;;7.40;99.90;;;;;;4992330;28;20556;-83
2021/11/06 08:09:01;;;;;;;1999.90;999.90;;;7.60;99.90;;;;;;4992213;28;20169;-87
2021/11/06 08:11:27;;;;;;;1999.90;999.90;;;7.60;99.90;;;;;;4993216;28;20207;-84
2021/11/06 08:13:52;;;;;;;1999.90;999.90;;;7.70;99.90;;;;;;4993043;28;20237;-80
2021/11/06 08:16:18;;;;;;;1999.90;999.90;;;8.00;99.90;;;;;;4991752;28;20552;-80
2021/11/06 08:18:44;;;;;;;1999.90;999.90;;;7.70;99.90;;;;;;4959786;28;20181;-83
2021/11/06 08:21:10;;;;;;;1999.90;999.90;;;7.70;99.90;;;;;;4960215;28;20208;-81
2021/11/06 08:23:36;;;;;;;1999.90;999.90;;;7.70;99.90;;;;;;4960140;28;20212;-83
2021/11/06 08:26:01;;;;;;;1999.90;999.90;;;7.70;99.90;;;;;;4960280;28;20177;-82
2021/11/06 08:28:27;;;;;;;1999.90;999.90;;;7.70;99.90;;;;;;4975739;28;20539;-83
2021/11/06 08:30:52;;;;;;;1999.90;999.90;;;7.70;99.90;;;;;;4959807;28;20234;-82
2021/11/06 08:33:18;;;;;;;1999.90;999.90;;;7.70;99.90;;;;;;4960616;28;20194;-82
2021/11/06 08:35:44;;;;;;;1999.90;999.90;;;;;;;;;;4978814;28;20193;-84
2021/11/06 08:38:11;;;;;;;1999.90;999.90;;;7.70;99.90;;;;;;4987909;28;20185;-82
2021/11/06 08:40:37;;;;;;;1999.90;999.90;;;7.80;99.90;;;;;;4968376;28;20256;-80
2021/11/06 08:43:03;;;;;;;1999.90;999.90;;;7.80;99.90;;;;;;4983736;28;20205;-81
2021/11/06 08:45:28;;;;;;;1999.90;999.90;;;7.90;99.90;;;;;;4963593;28;20175;-81
2021/11/06 08:47:54;;;;;;;1999.90;999.90;;;7.80;99.90;;;;;;4967669;28;20183;-80
2021/11/06 08:50:22;;;;;;;1999.90;999.90;;;7.90;99.90;;;;;;4982880;28;20195;-82
2021/11/06 08:52:48;;;;;;;1999.90;999.90;;;7.90;99.90;;;;;;4988014;28;20603;-83
2021/11/06 08:55:14;;;;;;;1999.90;999.90;;;7.90;99.90;;;;;;5012268;28;20181;-80
2021/11/06 08:57:40;;;;;;;1999.90;999.90;;;7.90;99.90;;;;;;5011928;28;20268;-80
2021/11/06 09:00:11;;;;;;;1999.90;999.90;;;7.90;99.90;;;;;;5011662;28;20695;-82
2021/11/06 09:02:37;;;;;;;1999.90;999.90;;;7.90;99.90;;;;;;4994744;28;20205;-84
2021/11/06 09:05:04;;;;;;;1999.90;999.90;;;7.80;99.90;;;;;;4990288;28;20201;-83
2021/11/06 09:07:32;;;;;;;1999.90;999.90;;;8.00;99.90;;;;;;4969193;28;20192;-86
2021/11/06 09:10:05;;;;;;;1999.90;999.90;;;8.00;99.90;;;;;;4998298;28;20671;-86
2021/11/06 09:12:30;;;;;;;1999.90;999.90;;;7.90;99.90;;;;;;4996207;28;20172;-85
2021/11/06 09:14:56;;;;;;;1999.90;999.90;;;7.90;99.90;;;;;;4982584;28;20939;-86
2021/11/06 09:17:21;;;;;;;1999.90;999.90;;;8.00;99.90;;;;;;4982907;28;20191;-85
2021/11/06 09:19:47;;;;;;;1999.90;999.90;;;8.00;99.90;;;;;;4998375;28;20599;-85
2021/11/06 09:22:13;;;;;;;1999.90;999.90;;;8.10;99.90;;;;;;4981632;28;20530;-86
2021/11/06 09:24:40;;;;;;;1999.90;999.90;;;8.30;99.90;;;;;;5000163;28;20521;-84
2021/11/06 09:27:06;;;;;;;1999.90;999.90;;;8.20;99.90;;;;;;4984578;28;20191;-81
2021/11/06 09:29:31;;;;;;;1999.90;999.90;;;8.10;99.90;;;;;;5016152;28;20180;-84
2021/11/06 09:31:57;;;;;;;1999.90;999.90;;;8.10;99.90;;;;;;4982970;28;20524;-80
2021/11/06 09:34:22;;;;;;;1999.90;999.90;;;8.10;99.90;;;;;;4989202;28;20195;-80
2021/11/06 09:36:48;;;;;;;1999.90;999.90;;;8.30;99.90;;;;;;4996108;28;20172;-83
2021/11/06 09:39:14;;;;;;;1999.90;999.90;;;8.30;99.90;;;;;;4979434;28;20184;-83
2021/11/06 09:41:39;;;;;;;1999.90;999.90;;;8.30;99.90;;;;;;4995423;28;20200;-79
2021/11/06 09:44:05;;;;;;;1999.90;999.90;;;8.40;99.90;;;;;;4995302;28;20226;-80
2021/11/06 09:46:31;;;;;;;1999.90;999.90;;;8.40;99.90;;;;;;4979243;28;20183;-80
2021/11/06 09:48:56;;;;;;;1999.90;999.90;;;8.40;99.90;;;;;;4994939;28;20199;-79
2021/11/06 09:51:22;;;;;;;1999.90;999.90;;;8.50;99.90;;;;;;4967200;28;20205;-78
2021/11/06 09:53:49;;;;;;;1999.90;999.90;;;8.50;99.90;;;;;;4994995;28;20207;-80
2021/11/06 09:56:23;;;;;;;1999.90;999.90;;;8.40;99.90;;;;;;4995086;28;20215;-80
2021/11/06 09:58:49;;;;;;;1999.90;999.90;;;8.50;99.90;;;;;;4994650;28;20629;-80
2021/11/06 10:01:15;;;;;;;1999.90;999.90;;;8.60;99.90;;;;;;4989809;28;20308;-82
2021/11/06 10:03:40;;;;;;;1999.90;999.90;;;8.70;99.90;;;;;;4948539;28;20196;-83
2021/11/06 10:06:07;;;;;;;1999.90;999.90;;;8.70;99.90;;;;;;4994170;28;20206;-83
2021/11/06 10:08:38;;;;;;;1999.90;999.90;;;8.60;99.90;;;;;;4962526;28;20190;-84
2021/11/06 10:11:09;;;;;;;1999.90;999.90;;;8.70;99.90;;;;;;4963537;28;20220;-81
2021/11/06 10:13:54;;;;;;;1999.90;999.90;;;8.60;99.90;;;;;;4995759;28;20640;-81
2021/11/06 10:16:57;;;;;;;1999.90;999.90;;;8.70;99.90;;;;;;4994866;28;20271;-82
2021/11/06 10:19:29;;;;;;;1999.90;999.90;;;8.70;99.90;;;;;;4995376;28;20178;-82
2021/11/06 10:22:09;;;;;;;1999.90;999.90;;;8.80;99.90;;;;;;4994957;28;20244;-81
2021/11/06 10:24:41;;;;;;;1999.90;999.90;;;8.90;99.90;;;;;;4994910;28;20777;-81
2021/11/06 10:27:13;;;;;;;1999.90;999.90;;;8.90;99.90;;;;;;4994629;28;20180;-81
2021/11/06 10:29:39;;;;;;;1999.90;999.90;;;9.00;99.90;;;;;;4994517;28;20169;-82
2021/11/06 10:32:06;;;;;;;1999.90;999.90;;;9.20;99.90;;;;;;4995023;28;20183;-82
2021/11/06 10:34:33;;;;;;;1999.90;999.90;;;9.10;99.90;;;;;;4994835;28;20184;-81
2021/11/06 10:37:06;;;;;;;1999.90;999.90;;;9.30;99.90;;;;;;4994647;28;20184;-82
2021/11/06 10:39:32;;;;;;;1999.90;999.90;;;9.20;99.90;;;;;;4994057;28;20250;-82
2021/11/06 10:42:12;;;;;;;1999.90;999.90;;;9.30;99.90;;;;;;4994647;28;20186;-82
2021/11/06 10:44:39;;;;;;;1999.90;999.90;;;9.30;99.90;;;;;;4994378;28;20212;-82
2021/11/06 10:47:04;;;;;;;1999.90;999.90;;;9.20;99.90;;;;;;4994634;28;20255;-81
2021/11/06 10:49:30;;;;;;;1999.90;999.90;;;9.60;99.90;;;;;;4994115;28;20579;-80
2021/11/06 10:52:07;;;;;;;1999.90;999.90;;;9.20;99.90;;;;;;4994528;28;20526;-81
2021/11/06 10:54:33;;;;;;;1999.90;999.90;;;9.30;99.90;;;;;;4994546;28;20180;-84
2021/11/06 10:56:58;;;;;;;1999.90;999.90;;;9.40;99.90;;;;;;4994323;28;20184;-83
2021/11/06 10:59:25;;;;;;;1999.90;999.90;;;9.40;99.90;;;;;;4993872;28;20183;-82
2021/11/06 11:01:54;;;;;;;1999.90;999.90;;;9.50;99.90;;;;;;4991930;28;20224;-82
2021/11/06 11:04:21;;;;;;;1999.90;999.90;;;9.50;99.90;;;;;;4977078;28;20698;-79
2021/11/06 11:06:54;;;;;;;1999.90;999.90;;;9.40;99.90;;;;;;4978242;28;20182;-78
2021/11/06 11:09:25;;;;;;;1999.90;999.90;;;9.50;99.90;;;;;;4962486;28;20174;-80
2021/11/06 11:11:51;;;;;;;1999.90;999.90;;;9.50;99.90;;;;;;4978667;28;20187;-80
2021/11/06 11:14:21;;;;;;;1999.90;999.90;;;9.60;99.90;;;;;;5011436;28;20168;-80
2021/11/06 11:17:00;;;;;;;1999.90;999.90;;;9.40;99.90;;;;;;5027751;28;20185;-80
2021/11/06 11:19:40;;;;;;;1999.90;999.90;;;9.60;99.90;;;;;;5011278;28;20190;-80
2021/11/06 11:22:07;;;;;;;1999.90;999.90;;;9.80;99.90;;;;;;5010789;28;20188;-80
2021/11/06 11:24:32;;;;;;;1999.90;999.90;;;9.80;99.90;;;;;;4962444;28;20212;-81
2021/11/06 11:26:58;;;;;;;1999.90;999.90;;;9.80;99.90;;;;;;4963540;28;20182;-81
2021/11/06 11:29:31;;;;;;;1999.90;999.90;;;9.90;99.90;;;;;;4976316;28;20678;-81
2021/11/06 11:31:57;;;;;;;1999.90;999.90;;;9.80;99.90;;;;;;4994711;28;20172;-82
2021/11/06 11:34:23;;;;;;;1999.90;999.90;;;9.90;99.90;;;;;;4983668;28;20221;-82
2021/11/06 11:36:49;;;;;;;1999.90;999.90;;;10.00;99.90;;;;;;4994502;28;20194;-78
2021/11/06 11:39:17;;;;;;;1999.90;999.90;;;10.00;99.90;;;;;;4962127;28;20207;-78
2021/11/06 11:41:49;;;;;;;1999.90;999.90;;;10.10;99.90;;;;;;4993724;28;20588;-80
2021/11/06 11:44:45;;;;;;;1999.90;999.90;;;10.20;99.90;;;;;;4993595;28;20698;-80
2021/11/06 11:47:23;;;;;;;1999.90;999.90;;;10.20;99.90;;;;;;4974437;28;20650;-80
2021/11/06 11:49:52;;;;;;;1999.90;999.90;;;10.20;99.90;;;;;;4974298;28;20732;-81
2021/11/06 11:52:33;;;;;;;1999.90;999.90;;;10.20;99.90;;;;;;4976249;28;20310;-79
2021/11/06 11:55:08;;;;;;;1999.90;999.90;;;10.10;99.90;;;;;;4977158;28;20648;-81
2021/11/06 11:57:35;;;;;;;1999.90;999.90;;;9.90;99.90;;;;;;4991868;28;20593;-80
2021/11/06 12:00:02;;;;;;;1999.90;999.90;;;9.90;99.90;;;;;;4992031;28;20722;-80
2021/11/06 12:02:29;;;;;;;1999.90;999.90;;;10.00;99.90;;;;;;4995267;28;20625;-80
2021/11/06 12:05:14;;;;;;;1999.90;999.90;;;10.00;99.90;;;;;;4977213;28;20265;-79
2021/11/06 12:07:40;;;;;;;1999.90;999.90;;;10.00;99.90;;;;;;5006307;28;20180;-81
2021/11/06 12:10:24;;;;;;;1999.90;999.90;;;;;;;;;;4984155;28;20350;-81